sensor_id;sensor_type;location;lat;lon;timestamp;pressure;altitude;pressure_sealevel;temperature;humidity
34328;BME280;20588;48.840;10.064;2022-09-14T00:00:43;95684.66;;;17.93;100.00
34328;BME280;20588;48.840;10.064;2022-09-14T00:03:09;95675.81;;;17.94;100.00
34328;BME280;20588;48.840;10.064;2022-09-14T00:05:35;95671.31;;;18.00;100.00
34328;BME280;20588;48.840;10.064;2022-09-14T00:08:02;95678.72;;;18.12;99.31
34328;BME280;20588;48.840;10.064;2022-09-14T00:10:28;95670.03;;;18.21;97.02
34328;BME280;20588;48.840;10.064;2022-09-14T00:12:55;95656.88;;;18.31;95.34
34328;BME280;20588;48.840;10.064;2022-09-14T00:15:21;95658.91;;;18.39;94.30
34328;BME280;20588;48.840;10.064;2022-09-14T00:17:47;95655.44;;;18.44;93.52
34328;BME280;20588;48.840;10.064;2022-09-14T00:20:13;95651.53;;;18.46;93.28
34328;BME280;20588;48.840;10.064;2022-09-14T00:22:39;95649.13;;;18.50;92.67
34328;BME280;20588;48.840;10.064;2022-09-14T00:25:05;95638.41;;;18.51;93.60
34328;BME280;20588;48.840;10.064;2022-09-14T00:27:32;95637.16;;;18.49;95.01
34328;BME280;20588;48.840;10.064;2022-09-14T00:29:58;95632.72;;;18.49;94.87
34328;BME280;20588;48.840;10.064;2022-09-14T00:32:24;95630.59;;;18.51;94.99
34328;BME280;20588;48.840;10.064;2022-09-14T00:34:50;95627.50;;;18.49;95.32
34328;BME280;20588;48.840;10.064;2022-09-14T00:37:16;95628.16;;;18.60;92.54
34328;BME280;20588;48.840;10.064;2022-09-14T00:39:42;95626.53;;;18.64;92.35
34328;BME280;20588;48.840;10.064;2022-09-14T00:42:13;95635.03;;;18.69;92.30
34328;BME280;20588;48.840;10.064;2022-09-14T00:47:06;95634.97;;;18.74;91.56
34328;BME280;20588;48.840;10.064;2022-09-14T00:49:36;95623.97;;;18.77;90.92
34328;BME280;20588;48.840;10.064;2022-09-14T00:54:49;95615.81;;;18.84;89.91
34328;BME280;20588;48.840;10.064;2022-09-14T00:57:17;95613.47;;;18.82;90.20
34328;BME280;20588;48.840;10.064;2022-09-14T00:59:46;95612.69;;;18.82;90.34
34328;BME280;20588;48.840;10.064;2022-09-14T01:02:13;95593.47;;;18.78;90.73
34328;BME280;20588;48.840;10.064;2022-09-14T01:04:41;95596.38;;;18.76;91.74
34328;BME280;20588;48.840;10.064;2022-09-14T01:09:55;95606.56;;;18.73;92.05
34328;BME280;20588;48.840;10.064;2022-09-14T01:18:28;95566.41;;;18.74;92.61
34328;BME280;20588;48.840;10.064;2022-09-14T01:29:26;95540.22;;;18.65;94.84
34328;BME280;20588;48.840;10.064;2022-09-14T01:34:45;95548.03;;;18.65;95.01
34328;BME280;20588;48.840;10.064;2022-09-14T01:37:20;95547.47;;;18.68;94.56
34328;BME280;20588;48.840;10.064;2022-09-14T01:39:52;95537.16;;;18.77;92.22
34328;BME280;20588;48.840;10.064;2022-09-14T01:42:22;95542.13;;;18.92;90.91
34328;BME280;20588;48.840;10.064;2022-09-14T01:44:55;95543.88;;;18.96;91.02
34328;BME280;20588;48.840;10.064;2022-09-14T01:47:36;95540.63;;;19.04;89.97
34328;BME280;20588;48.840;10.064;2022-09-14T01:50:23;95534.66;;;19.17;88.61
34328;BME280;20588;48.840;10.064;2022-09-14T01:52:58;95525.47;;;19.20;89.07
34328;BME280;20588;48.840;10.064;2022-09-14T01:56:44;95509.91;;;19.15;90.05
34328;BME280;20588;48.840;10.064;2022-09-14T01:59:16;95510.19;;;19.13;90.00
34328;BME280;20588;48.840;10.064;2022-09-14T02:01:51;95520.94;;;19.12;90.17
34328;BME280;20588;48.840;10.064;2022-09-14T02:04:28;95534.25;;;19.10;90.21
34328;BME280;20588;48.840;10.064;2022-09-14T02:06:56;95566.63;;;19.09;90.49
34328;BME280;20588;48.840;10.064;2022-09-14T02:09:23;95627.69;;;19.08;90.91
34328;BME280;20588;48.840;10.064;2022-09-14T02:11:52;95686.34;;;19.11;90.89
34328;BME280;20588;48.840;10.064;2022-09-14T02:14:20;95713.13;;;19.16;91.48
34328;BME280;20588;48.840;10.064;2022-09-14T02:16:46;95668.19;;;19.19;92.56
34328;BME280;20588;48.840;10.064;2022-09-14T02:19:13;95621.63;;;19.13;96.70
34328;BME280;20588;48.840;10.064;2022-09-14T02:21:39;95625.91;;;19.04;100.00
34328;BME280;20588;48.840;10.064;2022-09-14T02:24:06;95641.44;;;18.95;100.00
34328;BME280;20588;48.840;10.064;2022-09-14T02:26:32;95637.69;;;18.83;100.00
34328;BME280;20588;48.840;10.064;2022-09-14T02:28:58;95647.50;;;18.72;100.00
34328;BME280;20588;48.840;10.064;2022-09-14T02:31:52;95681.53;;;18.62;100.00
34328;BME280;20588;48.840;10.064;2022-09-14T02:34:42;95689.69;;;18.56;100.00
34328;BME280;20588;48.840;10.064;2022-09-14T02:37:21;95639.34;;;18.42;100.00
34328;BME280;20588;48.840;10.064;2022-09-14T02:40:17;95643.78;;;18.36;100.00
34328;BME280;20588;48.840;10.064;2022-09-14T02:48:39;95628.47;;;18.11;100.00
34328;BME280;20588;48.840;10.064;2022-09-14T02:52:26;95627.00;;;18.05;100.00
34328;BME280;20588;48.840;10.064;2022-09-14T02:54:38;95628.59;;;18.01;100.00
34328;BME280;20588;48.840;10.064;2022-09-14T02:57:08;95638.00;;;17.97;100.00
34328;BME280;20588;48.840;10.064;2022-09-14T02:59:34;95643.50;;;17.95;100.00
34328;BME280;20588;48.840;10.064;2022-09-14T03:02:00;95623.22;;;17.92;100.00
34328;BME280;20588;48.840;10.064;2022-09-14T03:04:27;95609.69;;;17.90;100.00
34328;BME280;20588;48.840;10.064;2022-09-14T03:06:53;95613.38;;;17.89;100.00
34328;BME280;20588;48.840;10.064;2022-09-14T03:09:19;95632.41;;;17.85;100.00
34328;BME280;20588;48.840;10.064;2022-09-14T03:11:45;95619.69;;;17.83;100.00
34328;BME280;20588;48.840;10.064;2022-09-14T03:14:11;95622.56;;;17.82;100.00
34328;BME280;20588;48.840;10.064;2022-09-14T03:16:38;95637.66;;;17.80;100.00
34328;BME280;20588;48.840;10.064;2022-09-14T03:19:04;95630.41;;;17.77;100.00
34328;BME280;20588;48.840;10.064;2022-09-14T03:21:32;95608.56;;;17.78;100.00
34328;BME280;20588;48.840;10.064;2022-09-14T03:23:58;95607.25;;;17.75;100.00
34328;BME280;20588;48.840;10.064;2022-09-14T03:26:26;95598.06;;;17.83;100.00
34328;BME280;20588;48.840;10.064;2022-09-14T03:28:55;95602.34;;;17.74;100.00
34328;BME280;20588;48.840;10.064;2022-09-14T03:31:22;95596.66;;;17.72;100.00
34328;BME280;20588;48.840;10.064;2022-09-14T03:33:56;95589.53;;;18.01;100.00
34328;BME280;20588;48.840;10.064;2022-09-14T03:36:23;95575.69;;;17.82;100.00
34328;BME280;20588;48.840;10.064;2022-09-14T03:38:52;95567.00;;;17.91;100.00
34328;BME280;20588;48.840;10.064;2022-09-14T03:41:19;95576.69;;;17.86;100.00
34328;BME280;20588;48.840;10.064;2022-09-14T03:43:45;95576.84;;;17.71;100.00
34328;BME280;20588;48.840;10.064;2022-09-14T03:46:14;95589.81;;;17.76;100.00
34328;BME280;20588;48.840;10.064;2022-09-14T03:48:41;95575.88;;;17.67;100.00
34328;BME280;20588;48.840;10.064;2022-09-14T03:51:09;95574.88;;;17.63;100.00
34328;BME280;20588;48.840;10.064;2022-09-14T03:53:36;95574.44;;;17.56;100.00
34328;BME280;20588;48.840;10.064;2022-09-14T03:56:11;95564.56;;;17.53;100.00
34328;BME280;20588;48.840;10.064;2022-09-14T03:58:38;95554.94;;;17.53;100.00
34328;BME280;20588;48.840;10.064;2022-09-14T04:01:10;95560.44;;;17.52;100.00
34328;BME280;20588;48.840;10.064;2022-09-14T04:03:36;95551.06;;;17.51;100.00
34328;BME280;20588;48.840;10.064;2022-09-14T04:06:03;95560.72;;;17.50;100.00
34328;BME280;20588;48.840;10.064;2022-09-14T04:08:31;95566.94;;;17.49;100.00
34328;BME280;20588;48.840;10.064;2022-09-14T04:10:57;95552.13;;;17.50;100.00
34328;BME280;20588;48.840;10.064;2022-09-14T04:13:23;95551.84;;;17.51;100.00
34328;BME280;20588;48.840;10.064;2022-09-14T04:15:57;95549.25;;;17.51;100.00
34328;BME280;20588;48.840;10.064;2022-09-14T04:18:23;95536.94;;;17.57;100.00
34328;BME280;20588;48.840;10.064;2022-09-14T04:20:58;95527.63;;;17.74;100.00
34328;BME280;20588;48.840;10.064;2022-09-14T04:23:25;95521.00;;;17.63;100.00
34328;BME280;20588;48.840;10.064;2022-09-14T04:25:52;95519.47;;;17.62;100.00
34328;BME280;20588;48.840;10.064;2022-09-14T04:28:20;95516.34;;;17.60;100.00
34328;BME280;20588;48.840;10.064;2022-09-14T04:30:57;95518.81;;;17.52;100.00
34328;BME280;20588;48.840;10.064;2022-09-14T04:33:23;95520.66;;;17.46;100.00
34328;BME280;20588;48.840;10.064;2022-09-14T04:36:04;95523.25;;;17.46;100.00
34328;BME280;20588;48.840;10.064;2022-09-14T04:38:31;95516.53;;;17.45;100.00
34328;BME280;20588;48.840;10.064;2022-09-14T04:40:58;95502.72;;;17.45;100.00
34328;BME280;20588;48.840;10.064;2022-09-14T04:43:25;95505.84;;;17.47;100.00
34328;BME280;20588;48.840;10.064;2022-09-14T04:45:51;95500.09;;;17.50;100.00
34328;BME280;20588;48.840;10.064;2022-09-14T04:48:18;95500.34;;;17.48;100.00
34328;BME280;20588;48.840;10.064;2022-09-14T04:50:44;95504.03;;;17.47;100.00
34328;BME280;20588;48.840;10.064;2022-09-14T04:53:11;95501.16;;;17.49;100.00
34328;BME280;20588;48.840;10.064;2022-09-14T04:55:37;95498.25;;;17.50;100.00
34328;BME280;20588;48.840;10.064;2022-09-14T04:58:04;95501.84;;;17.54;100.00
34328;BME280;20588;48.840;10.064;2022-09-14T05:00:32;95512.25;;;17.54;100.00
34328;BME280;20588;48.840;10.064;2022-09-14T05:02:58;95497.91;;;17.57;100.00
34328;BME280;20588;48.840;10.064;2022-09-14T05:05:24;95502.06;;;17.58;100.00
34328;BME280;20588;48.840;10.064;2022-09-14T05:07:50;95497.91;;;17.57;100.00
34328;BME280;20588;48.840;10.064;2022-09-14T05:10:16;95496.88;;;17.58;100.00
34328;BME280;20588;48.840;10.064;2022-09-14T05:12:42;95497.63;;;17.58;100.00
34328;BME280;20588;48.840;10.064;2022-09-14T05:15:09;95494.00;;;17.59;100.00
34328;BME280;20588;48.840;10.064;2022-09-14T05:17:35;95497.09;;;17.61;100.00
34328;BME280;20588;48.840;10.064;2022-09-14T05:20:01;95497.84;;;17.62;100.00
34328;BME280;20588;48.840;10.064;2022-09-14T05:22:28;95502.03;;;17.63;100.00
34328;BME280;20588;48.840;10.064;2022-09-14T05:24:54;95509.56;;;17.64;100.00
34328;BME280;20588;48.840;10.064;2022-09-14T05:27:20;95503.56;;;17.64;100.00
34328;BME280;20588;48.840;10.064;2022-09-14T05:29:46;95497.56;;;17.63;100.00
34328;BME280;20588;48.840;10.064;2022-09-14T05:32:12;95498.88;;;17.66;100.00
34328;BME280;20588;48.840;10.064;2022-09-14T05:34:38;95498.59;;;17.67;100.00
34328;BME280;20588;48.840;10.064;2022-09-14T05:37:04;95496.75;;;17.68;100.00
34328;BME280;20588;48.840;10.064;2022-09-14T05:39:30;95488.88;;;17.73;100.00
34328;BME280;20588;48.840;10.064;2022-09-14T05:41:56;95486.00;;;17.74;100.00
34328;BME280;20588;48.840;10.064;2022-09-14T05:44:22;95476.28;;;17.80;100.00
34328;BME280;20588;48.840;10.064;2022-09-14T05:46:49;95478.28;;;17.88;100.00
34328;BME280;20588;48.840;10.064;2022-09-14T05:49:15;95482.06;;;17.95;100.00
34328;BME280;20588;48.840;10.064;2022-09-14T05:51:41;95475.03;;;17.96;100.00
34328;BME280;20588;48.840;10.064;2022-09-14T05:54:07;95484.53;;;18.06;100.00
34328;BME280;20588;48.840;10.064;2022-09-14T05:56:36;95486.22;;;18.15;100.00
34328;BME280;20588;48.840;10.064;2022-09-14T05:59:02;95486.56;;;18.27;100.00
34328;BME280;20588;48.840;10.064;2022-09-14T06:01:30;95481.25;;;18.37;100.00
34328;BME280;20588;48.840;10.064;2022-09-14T06:03:59;95470.16;;;18.45;100.00
34328;BME280;20588;48.840;10.064;2022-09-14T06:06:27;95485.84;;;18.59;100.00
34328;BME280;20588;48.840;10.064;2022-09-14T06:08:54;95491.66;;;18.69;100.00
34328;BME280;20588;48.840;10.064;2022-09-14T06:11:27;95490.03;;;18.73;100.00
34328;BME280;20588;48.840;10.064;2022-09-14T06:13:54;95486.47;;;18.83;100.00
34328;BME280;20588;48.840;10.064;2022-09-14T06:16:22;95493.66;;;18.91;100.00
34328;BME280;20588;48.840;10.064;2022-09-14T06:18:48;95504.75;;;18.96;100.00
34328;BME280;20588;48.840;10.064;2022-09-14T06:21:18;95509.41;;;18.99;100.00
34328;BME280;20588;48.840;10.064;2022-09-14T06:23:45;95505.75;;;19.00;100.00
34328;BME280;20588;48.840;10.064;2022-09-14T06:26:12;95533.88;;;19.03;100.00
34328;BME280;20588;48.840;10.064;2022-09-14T06:28:39;95532.78;;;19.04;100.00
34328;BME280;20588;48.840;10.064;2022-09-14T06:31:05;95516.56;;;19.07;100.00
34328;BME280;20588;48.840;10.064;2022-09-14T06:33:33;95525.19;;;19.08;100.00
34328;BME280;20588;48.840;10.064;2022-09-14T06:36:10;95524.88;;;19.09;100.00
34328;BME280;20588;48.840;10.064;2022-09-14T06:38:38;95511.63;;;19.06;100.00
34328;BME280;20588;48.840;10.064;2022-09-14T06:41:06;95504.81;;;19.10;100.00
34328;BME280;20588;48.840;10.064;2022-09-14T06:43:35;95507.91;;;19.25;100.00
34328;BME280;20588;48.840;10.064;2022-09-14T06:46:09;95516.75;;;19.56;100.00
34328;BME280;20588;48.840;10.064;2022-09-14T06:48:43;95515.94;;;19.83;100.00
34328;BME280;20588;48.840;10.064;2022-09-14T06:53:44;95519.13;;;21.09;100.00
34328;BME280;20588;48.840;10.064;2022-09-14T06:56:10;95514.97;;;21.86;100.00
34328;BME280;20588;48.840;10.064;2022-09-14T06:58:37;95525.81;;;22.27;100.00
34328;BME280;20588;48.840;10.064;2022-09-14T07:01:04;95525.06;;;22.18;100.00
34328;BME280;20588;48.840;10.064;2022-09-14T07:03:31;95518.84;;;21.97;100.00
34328;BME280;20588;48.840;10.064;2022-09-14T07:06:14;95521.38;;;21.72;100.00
34328;BME280;20588;48.840;10.064;2022-09-14T07:08:41;95526.25;;;21.56;100.00
34328;BME280;20588;48.840;10.064;2022-09-14T07:11:09;95523.16;;;21.54;100.00
34328;BME280;20588;48.840;10.064;2022-09-14T07:13:35;95521.69;;;21.70;100.00
34328;BME280;20588;48.840;10.064;2022-09-14T07:16:02;95511.44;;;21.82;100.00
34328;BME280;20588;48.840;10.064;2022-09-14T07:18:29;95506.97;;;21.91;100.00
34328;BME280;20588;48.840;10.064;2022-09-14T07:21:05;95516.72;;;22.33;100.00
34328;BME280;20588;48.840;10.064;2022-09-14T07:23:33;95516.41;;;22.69;100.00
34328;BME280;20588;48.840;10.064;2022-09-14T07:26:09;95512.59;;;22.75;100.00
34328;BME280;20588;48.840;10.064;2022-09-14T07:28:36;95512.28;;;22.76;98.17
34328;BME280;20588;48.840;10.064;2022-09-14T07:31:03;95514.72;;;22.81;99.49
34328;BME280;20588;48.840;10.064;2022-09-14T07:33:30;95519.97;;;22.81;99.53
34328;BME280;20588;48.840;10.064;2022-09-14T07:36:07;95514.72;;;22.81;99.98
34328;BME280;20588;48.840;10.064;2022-09-14T07:38:34;95512.09;;;22.81;99.92
34328;BME280;20588;48.840;10.064;2022-09-14T07:41:00;95514.72;;;22.81;99.97
34328;BME280;20588;48.840;10.064;2022-09-14T07:43:27;95514.88;;;22.85;100.00
34328;BME280;20588;48.840;10.064;2022-09-14T07:45:53;95515.81;;;22.80;99.09
34328;BME280;20588;48.840;10.064;2022-09-14T07:48:20;95510.38;;;22.94;99.75
34328;BME280;20588;48.840;10.064;2022-09-14T07:50:47;95512.31;;;23.23;97.12
34328;BME280;20588;48.840;10.064;2022-09-14T07:53:13;95512.00;;;23.70;93.57
34328;BME280;20588;48.840;10.064;2022-09-14T07:55:39;95512.63;;;23.96;93.09
34328;BME280;20588;48.840;10.064;2022-09-14T07:58:06;95525.50;;;24.18;92.42
34328;BME280;20588;48.840;10.064;2022-09-14T08:00:32;95519.19;;;25.38;88.10
34328;BME280;20588;48.840;10.064;2022-09-14T08:02:58;95519.25;;;27.82;75.36
34328;BME280;20588;48.840;10.064;2022-09-14T08:05:25;95511.78;;;29.33;66.81
34328;BME280;20588;48.840;10.064;2022-09-14T08:07:55;95518.25;;;30.07;60.51
34328;BME280;20588;48.840;10.064;2022-09-14T08:10:21;95510.13;;;29.70;59.23
34328;BME280;20588;48.840;10.064;2022-09-14T08:12:52;95517.94;;;29.18;61.58
34328;BME280;20588;48.840;10.064;2022-09-14T08:15:20;95521.06;;;29.24;61.37
34328;BME280;20588;48.840;10.064;2022-09-14T08:17:47;95521.91;;;29.50;61.25
34328;BME280;20588;48.840;10.064;2022-09-14T08:20:14;95524.66;;;30.29;57.52
34328;BME280;20588;48.840;10.064;2022-09-14T08:22:41;95535.03;;;31.00;54.61
34328;BME280;20588;48.840;10.064;2022-09-14T08:25:09;95540.31;;;31.77;53.39
34328;BME280;20588;48.840;10.064;2022-09-14T08:27:35;95531.53;;;33.05;49.43
34328;BME280;20588;48.840;10.064;2022-09-14T08:30:02;95532.75;;;33.36;46.69
34328;BME280;20588;48.840;10.064;2022-09-14T08:32:28;95536.22;;;34.10;46.26
34328;BME280;20588;48.840;10.064;2022-09-14T08:34:54;95530.13;;;34.03;44.76
34328;BME280;20588;48.840;10.064;2022-09-14T08:37:20;95536.56;;;34.37;44.26
34328;BME280;20588;48.840;10.064;2022-09-14T08:39:46;95542.44;;;35.04;44.13
34328;BME280;20588;48.840;10.064;2022-09-14T08:42:20;95548.78;;;35.38;44.11
34328;BME280;20588;48.840;10.064;2022-09-14T08:44:58;95548.59;;;35.63;43.26
34328;BME280;20588;48.840;10.064;2022-09-14T08:47:29;95559.03;;;34.64;43.39
34328;BME280;20588;48.840;10.064;2022-09-14T08:50:16;95557.06;;;33.03;46.56
34328;BME280;20588;48.840;10.064;2022-09-14T08:52:48;95564.59;;;31.68;50.32
34328;BME280;20588;48.840;10.064;2022-09-14T09:04:23;95592.38;;;28.72;60.78
34328;BME280;20588;48.840;10.064;2022-09-14T09:07:07;95600.25;;;28.18;63.24
34328;BME280;20588;48.840;10.064;2022-09-14T09:09:42;95603.50;;;27.65;65.35
34328;BME280;20588;48.840;10.064;2022-09-14T09:12:21;95607.22;;;27.21;67.59
34328;BME280;20588;48.840;10.064;2022-09-14T09:14:56;95627.94;;;26.91;69.31
34328;BME280;20588;48.840;10.064;2022-09-14T09:17:35;95602.13;;;26.61;69.50
34328;BME280;20588;48.840;10.064;2022-09-14T09:20:23;95606.81;;;26.27;72.10
34328;BME280;20588;48.840;10.064;2022-09-14T09:25:30;95597.13;;;26.19;73.67
34328;BME280;20588;48.840;10.064;2022-09-14T09:28:08;95602.16;;;26.48;72.67
34328;BME280;20588;48.840;10.064;2022-09-14T09:30:34;95602.66;;;26.78;70.48
34328;BME280;20588;48.840;10.064;2022-09-14T09:33:00;95602.50;;;27.26;69.06
34328;BME280;20588;48.840;10.064;2022-09-14T09:35:26;95605.56;;;27.87;65.56
34328;BME280;20588;48.840;10.064;2022-09-14T09:37:53;95608.25;;;28.53;63.84
34328;BME280;20588;48.840;10.064;2022-09-14T09:40:33;95600.84;;;29.57;58.59
34328;BME280;20588;48.840;10.064;2022-09-14T09:43:14;95593.00;;;30.32;57.22
34328;BME280;20588;48.840;10.064;2022-09-14T09:48:15;95584.16;;;31.86;52.23
34328;BME280;20588;48.840;10.064;2022-09-14T09:53:25;95576.72;;;32.09;49.87
34328;BME280;20588;48.840;10.064;2022-09-14T09:55:52;95579.81;;;32.79;48.29
34328;BME280;20588;48.840;10.064;2022-09-14T09:58:33;95575.81;;;33.28;47.35
34328;BME280;20588;48.840;10.064;2022-09-14T10:01:06;95574.72;;;33.39;46.05
34328;BME280;20588;48.840;10.064;2022-09-14T10:03:38;95584.28;;;33.65;46.71
34328;BME280;20588;48.840;10.064;2022-09-14T10:06:07;95577.44;;;34.02;44.73
34328;BME280;20588;48.840;10.064;2022-09-14T10:08:40;95572.84;;;34.48;44.45
34328;BME280;20588;48.840;10.064;2022-09-14T10:11:34;95556.94;;;35.10;43.39
34328;BME280;20588;48.840;10.064;2022-09-14T10:14:04;95565.53;;;35.49;42.64
34328;BME280;20588;48.840;10.064;2022-09-14T10:16:38;95562.66;;;35.74;42.21
34328;BME280;20588;48.840;10.064;2022-09-14T10:19:22;95554.38;;;36.05;41.33
34328;BME280;20588;48.840;10.064;2022-09-14T10:22:06;95556.84;;;35.86;41.15
34328;BME280;20588;48.840;10.064;2022-09-14T10:24:41;95545.78;;;35.80;41.94
34328;BME280;20588;48.840;10.064;2022-09-14T10:27:36;95531.91;;;35.96;40.92
34328;BME280;20588;48.840;10.064;2022-09-14T10:30:09;95532.16;;;35.61;40.29
34328;BME280;20588;48.840;10.064;2022-09-14T10:32:39;95535.06;;;35.22;40.86
34328;BME280;20588;48.840;10.064;2022-09-14T10:35:12;95536.56;;;35.30;41.35
34328;BME280;20588;48.840;10.064;2022-09-14T10:38:03;95536.03;;;34.81;41.90
34328;BME280;20588;48.840;10.064;2022-09-14T10:40:38;95517.09;;;34.19;43.17
34328;BME280;20588;48.840;10.064;2022-09-14T10:43:21;95517.16;;;33.91;42.74
34328;BME280;20588;48.840;10.064;2022-09-14T10:45:50;95517.13;;;33.77;43.61
34328;BME280;20588;48.840;10.064;2022-09-14T10:57:20;95503.41;;;33.89;43.38
34328;BME280;20588;48.840;10.064;2022-09-14T11:00:11;95496.88;;;33.37;44.27
34328;BME280;20588;48.840;10.064;2022-09-14T11:05:38;95488.06;;;32.91;44.96
34328;BME280;20588;48.840;10.064;2022-09-14T11:08:28;95477.47;;;32.23;46.23
34328;BME280;20588;48.840;10.064;2022-09-14T11:11:30;95476.50;;;31.87;47.86
34328;BME280;20588;48.840;10.064;2022-09-14T11:14:12;95471.25;;;31.47;48.39
34328;BME280;20588;48.840;10.064;2022-09-14T11:17:10;95478.91;;;31.12;49.97
34328;BME280;20588;48.840;10.064;2022-09-14T11:19:53;95475.09;;;31.13;49.20
34328;BME280;20588;48.840;10.064;2022-09-14T11:22:31;95486.78;;;31.01;49.50
34328;BME280;20588;48.840;10.064;2022-09-14T11:27:51;95463.31;;;31.10;50.48
34328;BME280;20588;48.840;10.064;2022-09-14T11:30:22;95463.13;;;31.29;50.92
34328;BME280;20588;48.840;10.064;2022-09-14T11:32:59;95450.88;;;31.25;50.75
34328;BME280;20588;48.840;10.064;2022-09-14T11:35:43;95444.75;;;31.17;50.75
34328;BME280;20588;48.840;10.064;2022-09-14T11:38:15;95435.97;;;31.13;51.61
34328;BME280;20588;48.840;10.064;2022-09-14T11:40:50;95436.75;;;31.14;51.49
34328;BME280;20588;48.840;10.064;2022-09-14T11:45:57;95436.03;;;31.20;50.48
34328;BME280;20588;48.840;10.064;2022-09-14T11:49:08;95435.63;;;31.15;50.56
34328;BME280;20588;48.840;10.064;2022-09-14T11:51:30;95420.94;;;30.88;51.12
34328;BME280;20588;48.840;10.064;2022-09-14T11:53:57;95418.72;;;30.93;50.91
34328;BME280;20588;48.840;10.064;2022-09-14T11:56:26;95428.34;;;31.08;50.24
34328;BME280;20588;48.840;10.064;2022-09-14T11:58:58;95436.03;;;31.17;50.40
34328;BME280;20588;48.840;10.064;2022-09-14T12:01:33;95431.91;;;31.23;50.30
34328;BME280;20588;48.840;10.064;2022-09-14T12:04:23;95426.56;;;31.23;50.25
34328;BME280;20588;48.840;10.064;2022-09-14T12:06:51;95427.41;;;30.87;49.65
34328;BME280;20588;48.840;10.064;2022-09-14T12:17:39;95451.84;;;31.97;48.40
34328;BME280;20588;48.840;10.064;2022-09-14T12:25:55;95455.16;;;32.48;45.75
34328;BME280;20588;48.840;10.064;2022-09-14T12:35:59;95437.69;;;32.68;44.23
34328;BME280;20588;48.840;10.064;2022-09-14T12:38:41;95447.53;;;32.54;44.95
34328;BME280;20588;48.840;10.064;2022-09-14T12:43:50;95443.66;;;31.66;46.13
34328;BME280;20588;48.840;10.064;2022-09-14T13:05:05;95405.56;;;30.05;52.10
34328;BME280;20588;48.840;10.064;2022-09-14T13:07:38;95400.56;;;30.00;52.24
34328;BME280;20588;48.840;10.064;2022-09-14T13:10:06;95402.34;;;29.92;51.73
34328;BME280;20588;48.840;10.064;2022-09-14T13:15:00;95393.34;;;29.70;53.67
34328;BME280;20588;48.840;10.064;2022-09-14T13:17:27;95395.81;;;29.56;54.00
34328;BME280;20588;48.840;10.064;2022-09-14T13:22:23;95397.28;;;29.05;54.19
34328;BME280;20588;48.840;10.064;2022-09-14T13:24:51;95404.03;;;28.80;55.18
34328;BME280;20588;48.840;10.064;2022-09-14T13:27:30;95391.16;;;28.60;56.31
34328;BME280;20588;48.840;10.064;2022-09-14T13:32:30;95391.56;;;28.20;57.31
34328;BME280;20588;48.840;10.064;2022-09-14T13:34:57;95405.34;;;28.10;59.56
34328;BME280;20588;48.840;10.064;2022-09-14T13:37:23;95419.41;;;27.79;58.12
34328;BME280;20588;48.840;10.064;2022-09-14T13:39:52;95421.66;;;27.43;61.67
34328;BME280;20588;48.840;10.064;2022-09-14T13:42:20;95421.34;;;26.70;64.65
34328;BME280;20588;48.840;10.064;2022-09-14T13:44:47;95425.56;;;26.31;66.51
34328;BME280;20588;48.840;10.064;2022-09-14T13:47:23;95424.69;;;26.00;69.29
34328;BME280;20588;48.840;10.064;2022-09-14T13:49:51;95430.41;;;25.90;71.73
34328;BME280;20588;48.840;10.064;2022-09-14T13:55:07;95437.34;;;25.82;74.42
34328;BME280;20588;48.840;10.064;2022-09-14T13:57:35;95434.72;;;25.70;75.08
34328;BME280;20588;48.840;10.064;2022-09-14T14:00:17;95453.75;;;25.52;75.83
34328;BME280;20588;48.840;10.064;2022-09-14T14:03:00;95443.84;;;25.25;76.05
34328;BME280;20588;48.840;10.064;2022-09-14T14:05:29;95444.47;;;25.10;75.32
34328;BME280;20588;48.840;10.064;2022-09-14T14:07:58;95440.47;;;24.92;77.58
34328;BME280;20588;48.840;10.064;2022-09-14T14:10:38;95443.53;;;24.82;79.70
34328;BME280;20588;48.840;10.064;2022-09-14T14:13:10;95448.31;;;24.67;81.48
34328;BME280;20588;48.840;10.064;2022-09-14T14:15:40;95443.78;;;24.56;82.65
34328;BME280;20588;48.840;10.064;2022-09-14T14:23:37;95438.78;;;24.42;82.09
34328;BME280;20588;48.840;10.064;2022-09-14T14:26:09;95442.53;;;24.41;81.70
34328;BME280;20588;48.840;10.064;2022-09-14T14:28:38;95434.91;;;24.28;82.76
34328;BME280;20588;48.840;10.064;2022-09-14T14:31:05;95439.97;;;24.12;83.71
34328;BME280;20588;48.840;10.064;2022-09-14T14:33:42;95444.75;;;23.90;85.02
34328;BME280;20588;48.840;10.064;2022-09-14T14:36:08;95437.56;;;23.78;85.48
34328;BME280;20588;48.840;10.064;2022-09-14T14:38:35;95434.34;;;23.73;86.54
34328;BME280;20588;48.840;10.064;2022-09-14T14:41:02;95429.91;;;23.65;87.93
34328;BME280;20588;48.840;10.064;2022-09-14T14:43:29;95423.69;;;23.69;88.35
34328;BME280;20588;48.840;10.064;2022-09-14T14:45:57;95423.03;;;23.81;86.85
34328;BME280;20588;48.840;10.064;2022-09-14T14:48:25;95425.50;;;23.77;85.36
34328;BME280;20588;48.840;10.064;2022-09-14T14:50:51;95421.28;;;23.64;85.63
34328;BME280;20588;48.840;10.064;2022-09-14T14:53:20;95415.25;;;23.64;86.51
34328;BME280;20588;48.840;10.064;2022-09-14T14:55:47;95413.84;;;23.66;86.18
34328;BME280;20588;48.840;10.064;2022-09-14T14:58:16;95430.22;;;23.63;86.30
34328;BME280;20588;48.840;10.064;2022-09-14T15:00:43;95433.25;;;23.74;86.27
34328;BME280;20588;48.840;10.064;2022-09-14T15:03:10;95449.31;;;23.81;85.45
34328;BME280;20588;48.840;10.064;2022-09-14T15:05:40;95454.75;;;23.76;86.22
34328;BME280;20588;48.840;10.064;2022-09-14T15:08:09;95454.34;;;23.65;86.46
34328;BME280;20588;48.840;10.064;2022-09-14T15:10:35;95455.00;;;23.62;85.66